Latest Weather Observations for Gabo Island

IDN60801

Issued at 1:02 pm EDT Sunday 11 December 2016 (issued every 30 minutes, with the page automatically refreshed every 10 minutes)

About weather observations | Map of weather stations | Latest weather observations for NSW | Other Formats
Station Details ID: 084016 Name: GABO ISLAND LIGHTHOUSE Lat: -37.57 Lon: 149.92 Height: 15.2 m
Data from the previous 72 hours. | See also: Recent months at Gabo Island
Date/Time
EDT
Temp
°C
App
Temp
°C
Dew
Point
°C
Rel
Hum
%
Delta-T
°C
Wind Press
QNH
hPa
Press
MSL
hPa
Rain since
9am
mm
Dir  Spd
km/h
Gust
km/h
Spd
kts
Gust
kts
11/01:00pm 17.0 12.2 11.6 70 2.9 SSW 28 33 15 18 1024.2 - 0.0
11/12:30pm 16.9 11.2 11.1 68 3.1 SSW 32 35 17 19 1024.1 - 0.0
11/12:00pm 17.0 12.3 12.1 73 2.7 SSW 28 33 15 18 1024.2 1024.1 0.0
11/11:30am 17.5 12.6 12.4 72 2.8 SSW 30 35 16 19 1023.9 - 0.0
11/11:00am 16.6 11.4 11.6 72 2.7 SSW 30 35 16 19 1024.0 - 0.0
11/10:30am 16.2 10.4 10.9 71 2.8 SSW 32 35 17 19 1024.0 - 0.0
11/10:00am 16.1 10.4 11.0 72 2.7 SSW 32 37 17 20 1024.0 - 0.0
11/09:30am 16.2 10.5 11.1 72 2.7 SW 32 37 17 20 1024.0 - 0.0
11/09:00am 16.3 11.7 11.1 71 2.8 SW 26 32 14 17 1024.1 1024.1 0.0
11/08:30am 16.5 11.5 10.9 69 3.0 WSW 28 33 15 18 1023.8 - 0.0
11/08:00am 15.5 10.0 10.6 72 2.6 WSW 30 33 16 18 1023.5 - 0.0
11/07:30am 15.2 10.5 10.8 75 2.3 WSW 26 33 14 18 1023.1 - 0.0
11/07:00am 14.7 10.7 10.3 75 2.3 W 22 28 12 15 1023.2 - 0.0
11/06:30am 14.9 10.9 10.3 74 2.4 W 22 26 12 14 1022.8 - 0.0
11/06:00am 14.8 11.2 10.0 73 2.5 WSW 19 22 10 12 1022.6 1022.6 0.0
11/05:30am 14.6 11.8 10.0 74 2.4 W 15 20 8 11 1022.4 - 0.0
11/05:00am 14.6 11.8 10.0 74 2.4 W 15 19 8 10 1022.2 - 0.0
11/04:30am 14.7 11.4 9.4 70 2.7 W 17 22 9 12 1022.2 - 0.0
11/04:00am 14.6 10.9 9.3 70 2.7 W 19 24 10 13 1022.2 - 0.0
11/03:30am 14.5 10.8 9.4 71 2.6 W 19 24 10 13 1022.3 - 0.0
11/03:00am 14.9 10.6 9.2 68 2.9 WSW 22 26 12 14 1022.1 1022.1 0.0
11/02:30am 15.0 10.8 9.6 70 2.8 WSW 22 28 12 15 1022.2 - 0.0
11/02:00am 14.8 10.6 9.8 72 2.6 WSW 22 26 12 14 1022.4 - 0.0
11/01:30am 14.8 10.5 9.5 70 2.7 WSW 22 26 12 14 1022.6 - 0.0
11/01:00am 14.8 10.5 9.5 70 2.7 WSW 22 26 12 14 1022.9 - 0.0
11/12:30am 14.8 10.9 9.5 70 2.7 W 20 24 11 13 1023.0 - 0.0
11/12:00am 15.0 11.3 9.3 68 2.9 WSW 19 22 10 12 1023.1 1023.1 0.0
 
Date/Time
EDT
Temp
°C
App
Temp
°C
Dew
Point
°C
Rel
Hum
%
Delta-T
°C
Wind Press
QNH
hPa
Press
MSL
hPa
Rain since
9am
mm
Dir  Spd
km/h
Gust
km/h
Spd
kts
Gust
kts
10/11:30pm 14.9 11.5 9.2 68 2.9 W 17 20 9 11 1023.3 - 0.0
10/11:00pm 15.0 12.1 9.6 70 2.8 WSW 15 20 8 11 1023.5 - 0.0
10/10:30pm 15.0 12.1 9.6 70 2.8 WSW 15 19 8 10 1023.5 - 0.0
10/10:00pm 15.1 11.8 9.7 70 2.8 WSW 17 20 9 11 1023.4 - 0.0
10/09:30pm 15.4 11.5 9.6 68 3.0 SW 20 24 11 13 1023.2 - 0.0
10/09:00pm 15.5 10.9 9.7 68 3.0 SW 24 28 13 15 1023.0 1023.0 0.0
10/08:30pm 15.4 10.7 9.1 66 3.2 SSW 24 28 13 15 1022.5 - 0.0
10/08:00pm 15.4 11.1 9.4 67 3.1 SSW 22 26 12 14 1022.1 - 0.0
10/07:30pm 15.8 11.8 9.2 65 3.4 SSW 20 24 11 13 1021.9 - 0.0
10/07:00pm 16.0 12.0 9.0 63 3.6 SSW 20 24 11 13 1021.7 - 0.0
10/06:30pm 16.4 12.0 9.0 61 3.8 SSW 22 30 12 16 1021.3 - 0.0
10/06:00pm 16.8 12.8 9.0 60 4.0 SSW 20 26 11 14 1021.1 1021.1 0.0
10/05:30pm 17.1 12.0 9.2 59 4.1 SSW 26 32 14 17 1021.2 - 0.0
10/05:00pm 16.4 10.4 8.8 60 3.9 SSW 30 35 16 19 1021.2 - 0.0
10/04:30pm 16.6 11.1 9.2 61 3.8 SSW 28 32 15 17 1021.3 - 0.0
10/04:00pm 17.0 10.8 10.2 64 3.6 SSW 33 39 18 21 1021.2 - 0.0
10/03:30pm 17.2 9.9 10.2 63 3.7 SSW 39 46 21 25 1021.1 - 0.0
10/03:00pm 16.2 7.8 9.7 65 3.4 SSW 44 52 24 28 1021.1 1021.1 0.0
10/02:30pm 16.7 8.5 9.6 63 3.7 SSW 43 48 23 26 1021.2 - 0.0
10/02:00pm 16.3 8.0 9.3 63 3.6 SSW 43 52 23 28 1021.3 - 0.0
10/01:30pm 16.4 7.9 8.5 59 4.0 SSW 43 50 23 27 1021.5 - 0.0
10/01:00pm 16.4 8.7 8.8 60 3.9 SSW 39 44 21 24 1021.8 - 0.0
10/12:30pm 16.2 8.5 8.5 60 3.9 SSW 39 44 21 24 1022.0 - 0.0
10/12:00pm 16.5 10.0 9.1 61 3.8 SW 33 41 18 22 1022.2 1022.3 0.0
10/11:30am 16.6 11.3 8.3 58 4.2 SW 26 35 14 19 1022.5 - 0.0
10/11:00am 17.3 11.8 7.5 52 4.9 WSW 26 32 14 17 1022.7 - 0.0
10/10:30am 16.7 11.1 7.0 52 4.8 WSW 26 30 14 16 1022.6 - 0.0
10/10:00am 16.1 10.1 6.9 54 4.5 WSW 28 35 15 19 1022.6 - 0.0
10/09:30am 16.0 9.7 7.3 56 4.3 WSW 30 39 16 21 1022.5 - 0.0
10/09:00am 15.1 7.7 6.6 57 4.1 W 35 46 19 25 1022.5 1022.4 0.4
10/08:30am 14.6 7.8 7.5 62 3.5 WSW 33 41 18 22 1022.3 - 0.4
10/08:00am 14.0 7.2 7.5 65 3.2 WSW 33 39 18 21 1022.2 - 0.4
10/07:30am 13.7 7.0 7.3 65 3.1 W 32 41 17 22 1021.8 - 0.4
10/07:00am 13.5 6.3 7.6 67 2.9 W 35 46 19 25 1021.2 - 0.4
10/06:30am 13.3 6.5 7.1 66 3.0 WSW 32 41 17 22 1020.9 - 0.4
10/06:00am 12.9 6.3 7.8 71 2.5 W 32 41 17 22 1020.7 1020.6 0.4
10/05:30am 12.8 6.2 8.4 74 2.2 W 33 44 18 24 1020.3 - 0.4
10/05:00am 12.8 5.8 8.4 74 2.2 W 35 46 19 25 1019.7 - 0.4
10/04:30am 13.0 5.7 8.6 74 2.2 WSW 37 52 20 28 1019.5 - 0.4
10/04:00am 12.8 6.2 8.4 74 2.2 W 33 43 18 23 1019.2 - 0.4
10/03:30am 12.9 6.7 10.2 84 1.4 WSW 33 44 18 24 1019.2 - 0.4
10/03:00am 12.7 5.2 9.5 81 1.6 W 39 44 21 24 1019.0 1019.0 0.4
10/02:30am 13.1 6.8 9.6 79 1.8 W 33 43 18 23 1018.9 - 0.4
10/02:00am 13.6 5.0 8.2 70 2.7 WSW 43 52 23 28 1019.0 - 0.4
10/01:30am 13.6 4.0 9.3 75 2.2 WSW 50 61 27 33 1019.0 - 0.4
10/01:00am 14.1 5.4 9.8 75 2.2 WSW 46 67 25 36 1019.2 - 0.4
10/12:55am 13.8 4.5 9.3 74 2.3 WSW 48 67 26 36 1019.1 - 0.4
10/12:30am 13.8 5.2 8.8 72 2.5 WSW 44 56 24 30 1019.0 - 0.4
10/12:00am 13.5 3.7 10.2 80 1.7 WSW 52 65 28 35 1019.2 1019.1 0.4
 
Date/Time
EDT
Temp
°C
App
Temp
°C
Dew
Point
°C
Rel
Hum
%
Delta-T
°C
Wind Press
QNH
hPa
Press
MSL
hPa
Rain since
9am
mm
Dir  Spd
km/h
Gust
km/h
Spd
kts
Gust
kts
09/11:57pm 13.4 3.5 9.9 79 1.8 WSW 52 70 28 38 1019.1 - 0.4
09/11:30pm 13.6 1.5 9.5 76 2.1 SW 63 76 34 41 1018.9 - 0.4
09/11:13pm 14.7 4.5 10.1 74 2.4 SW 54 72 29 39 1018.7 - 0.4
09/11:00pm 14.5 2.8 9.4 71 2.6 WSW 61 76 33 41 1018.5 - 0.4
09/10:48pm 14.5 3.3 8.5 67 3.0 WSW 57 76 31 41 1018.2 - 0.4
09/10:30pm 14.7 3.7 8.5 66 3.1 WSW 56 70 30 38 1018.1 - 0.4
09/10:07pm 15.0 2.9 9.3 68 2.9 SW 63 82 34 44 1017.7 - 0.4
09/10:00pm 15.0 2.3 8.5 65 3.3 SW 65 78 35 42 1017.5 - 0.4
09/09:30pm 14.8 3.0 8.9 68 3.0 SW 61 76 33 41 1017.4 - 0.4
09/09:00pm 15.0 3.2 8.9 67 3.1 SW 61 78 33 42 1016.8 1016.8 0.4
09/08:30pm 14.8 2.0 8.2 64 3.3 SW 65 87 35 47 1016.2 - 0.4
09/08:00pm 14.9 2.3 8.8 67 3.1 SW 65 80 35 43 1016.0 - 0.4
09/07:30pm 15.1 1.7 8.8 66 3.2 SW 69 80 37 43 1015.3 - 0.4
09/07:05pm 15.2 2.6 8.9 66 3.2 SW 65 83 35 45 1014.9 - 0.4
09/07:00pm 15.0 1.6 7.3 60 3.8 SW 67 83 36 45 1014.8 - 0.4
09/06:39pm 15.3 1.4 7.4 59 3.9 SW 70 89 38 48 1014.5 - 0.4
09/06:30pm 15.3 1.2 6.4 55 4.3 SW 70 83 38 45 1014.3 - 0.4
09/06:04pm 15.4 2.2 8.0 61 3.7 SW 67 85 36 46 1013.9 - 0.4
09/06:00pm 15.3 1.4 7.4 59 3.9 SW 70 85 38 46 1013.8 1013.8 0.4
09/05:30pm 15.4 1.6 6.8 56 4.2 SW 69 91 37 49 1013.4 - 0.4
09/05:00pm 15.7 1.8 6.5 54 4.5 SW 69 87 37 47 1013.0 - 0.4
09/04:30pm 15.8 2.1 7.6 58 4.1 SW 69 87 37 47 1013.0 - 0.4
09/04:20pm 15.5 1.6 7.4 58 4.0 SW 70 89 38 48 1012.9 - 0.4
09/04:00pm 15.8 2.3 8.1 60 3.9 SW 69 83 37 45 1012.7 - 0.4
09/03:35pm 15.8 1.6 7.8 59 4.0 SW 72 91 39 49 1012.3 - 0.4
09/03:30pm 15.5 1.2 7.4 58 4.0 SW 72 87 39 47 1012.3 - 0.4
09/03:00pm 15.6 2.4 9.6 67 3.1 SW 69 87 37 47 1012.2 1012.1 0.4
09/02:46pm 15.2 0.6 7.6 60 3.8 SW 74 93 40 50 1011.8 - 0.4
09/02:30pm 15.3 2.1 7.9 61 3.7 SW 67 83 36 45 1011.7 - 0.4
09/02:02pm 15.2 1.6 8.0 62 3.6 WSW 69 87 37 47 1011.6 - 0.4
09/02:00pm 14.8 0.4 7.1 60 3.8 WSW 72 87 39 47 1011.5 - 0.4
09/01:30pm 15.6 1.4 7.6 59 4.0 SW 72 93 39 50 1011.0 - 0.4
09/01:12pm 15.2 2.8 6.6 56 4.2 WSW 61 83 33 45 1010.8 - 0.4
09/01:06pm 15.0 4.3 8.2 64 3.4 WSW 54 91 29 49 1010.9 - 0.4
09/01:00pm 14.5 0.3 7.6 63 3.4 SW 72 91 39 49 1010.4 - 0.4
09/12:30pm 14.4 0.8 8.0 65 3.2 WSW 69 89 37 48 1010.1 - 0.4
09/12:04pm 14.4 1.5 7.5 63 3.4 WSW 65 83 35 45 1009.8 - 0.4
09/12:00pm 14.2 1.8 8.2 67 3.0 WSW 63 80 34 43 1009.9 1009.9 0.4
09/11:30am 15.2 4.2 9.2 67 3.1 WSW 57 78 31 42 1009.4 - 0.2
09/11:00am 13.4 2.9 10.9 85 1.3 WSW 57 76 31 41 1009.4 - 0.2
09/10:45am 13.4 3.1 9.5 77 2.0 W 54 72 29 39 1009.2 - 0.0
09/10:30am 12.6 1.7 9.5 81 1.6 W 57 72 31 39 1009.1 - 0.0
09/10:00am 13.7 2.8 7.4 65 3.1 WSW 54 72 29 39 1008.4 - 0.0
09/09:30am 13.4 2.8 8.6 73 2.4 WSW 54 72 29 39 1008.2 - 0.0
09/09:00am 13.4 1.8 8.4 72 2.5 WSW 59 80 32 43 1008.0 1007.9 4.2
09/08:30am 13.4 3.1 8.2 71 2.6 W 52 70 28 38 1007.5 - 4.2
09/08:22am 12.8 2.4 7.9 72 2.4 W 52 70 28 38 1007.4 - 4.2
09/08:00am 12.3 1.7 8.5 77 1.9 WSW 54 67 29 36 1007.1 - 4.2
09/07:43am 12.4 2.7 9.0 80 1.7 W 50 69 27 37 1006.7 - 4.0
09/07:30am 13.0 3.6 8.6 74 2.2 W 48 61 26 33 1006.4 - 4.0
09/07:05am 12.0 2.4 9.6 85 1.2 WSW 50 69 27 37 1006.3 - 4.0
09/07:00am 12.0 1.6 9.2 83 1.4 WSW 54 69 29 37 1006.2 - 4.0
09/06:48am 13.1 3.3 8.7 74 2.2 W 50 69 27 37 1005.8 - 4.0
09/06:30am 13.2 3.8 8.6 73 2.3 WSW 48 65 26 35 1005.4 - 4.0
09/06:01am 13.4 4.1 7.7 68 2.8 W 46 65 25 35 1004.5 - 4.0
09/06:00am 13.4 3.8 8.0 70 2.7 W 48 65 26 35 1004.4 1004.4 4.0
09/05:52am 13.5 4.2 7.4 66 3.0 WSW 46 65 25 35 1004.4 - 4.0
09/05:30am 13.4 3.7 7.3 66 3.0 W 48 59 26 32 1004.0 - 4.0
09/05:06am 13.8 3.8 8.0 68 2.9 W 50 69 27 37 1003.3 - 4.0
09/05:00am 13.9 3.5 7.6 66 3.1 W 52 69 28 37 1003.1 - 4.0
09/04:30am 14.1 4.2 8.1 67 3.0 WSW 50 63 27 34 1003.0 - 4.0
09/04:02am 14.4 5.2 8.2 66 3.1 WSW 46 65 25 35 1002.8 - 4.0
09/04:00am 14.3 4.8 8.3 67 3.0 WSW 48 65 26 35 1002.8 - 4.0
09/03:30am 14.4 4.3 8.9 69 2.8 WSW 52 65 28 35 1002.3 - 4.0
09/03:14am 14.5 4.0 9.0 69 2.8 WSW 54 72 29 39 1002.0 - 4.0
09/03:00am 14.6 4.2 9.1 69 2.8 WSW 54 67 29 36 1001.6 1001.6 4.0
09/02:42am 14.9 5.0 9.7 71 2.7 WSW 52 70 28 38 1001.5 - 4.0
09/02:30am 14.9 4.3 9.9 72 2.6 WSW 56 69 30 37 1001.2 - 4.0
09/02:00am 15.3 2.7 10.2 71 2.7 WSW 67 89 36 48 1000.2 - 4.0
09/01:30am 15.2 2.8 11.1 76 2.2 WSW 67 87 36 47 999.8 - 4.0
09/01:24am 15.3 3.4 11.4 77 2.1 WSW 65 85 35 46 999.8 - 4.0
09/01:00am 15.4 4.9 10.9 74 2.4 WSW 57 72 31 39 1000.4 - 4.0
09/12:30am 15.8 2.5 11.2 74 2.5 WSW 72 91 39 49 999.8 - 4.0
09/12:10am 16.0 4.0 11.0 72 2.7 WSW 65 83 35 45 999.7 - 4.0
09/12:00am 16.2 5.1 11.6 74 2.5 WSW 61 78 33 42 999.9 999.9 4.0
 
Date/Time
EDT
Temp
°C
App
Temp
°C
Dew
Point
°C
Rel
Hum
%
Delta-T
°C
Wind Press
QNH
hPa
Press
MSL
hPa
Rain since
9am
mm
Dir  Spd
km/h
Gust
km/h
Spd
kts
Gust
kts
08/11:30pm 16.5 6.1 11.3 71 2.8 WSW 57 72 31 39 1000.0 - 4.0
08/11:22pm 16.8 7.0 11.3 70 3.0 WSW 54 70 29 38 1000.0 - 4.0
08/11:02pm 16.0 10.9 13.0 82 1.7 W 32 50 17 27 1000.2 - 4.0
08/11:00pm 16.0 11.7 13.1 83 1.6 W 28 41 15 22 1000.2 - 4.0
08/10:30pm 15.9 10.1 12.8 82 1.7 W 35 44 19 24 1000.1 - 4.0
08/10:00pm 14.8 11.5 12.8 88 1.1 WNW 22 28 12 15 999.8 - 4.0
08/09:30pm 14.9 12.0 12.9 88 1.1 WNW 20 26 11 14 999.7 - 4.0
08/09:00pm 14.6 10.3 13.2 91 0.8 W 28 33 15 18 999.2 999.4 4.0
08/08:30pm 14.7 9.0 12.9 89 1.0 WSW 35 43 19 23 999.3 - 3.2
08/08:00pm 15.1 9.7 12.9 87 1.2 WSW 33 46 18 25 999.6 - 2.2
08/07:30pm 15.3 9.5 12.6 84 1.5 WSW 35 46 19 25 999.6 - 2.0
08/07:00pm 15.4 7.6 12.9 85 1.4 WSW 46 56 25 30 999.3 - 2.0
08/06:30pm 15.3 6.2 13.7 90 0.9 SW 54 67 29 36 998.6 - 2.0
08/06:00pm 15.9 6.2 14.7 93 0.7 SW 59 72 32 39 997.8 997.8 1.8
08/05:30pm 18.0 8.1 16.3 90 1.0 SW 63 83 34 45 997.5 - 0.0
08/05:21pm 18.8 10.9 16.0 84 1.7 SW 52 76 28 41 996.3 - 0.0
08/05:19pm 19.2 12.0 15.7 80 2.1 SW 48 63 26 34 996.6 - 0.0
08/05:17pm 20.3 13.7 16.3 78 2.4 W 46 61 25 33 996.6 - 0.0
08/05:16pm 21.6 15.5 18.4 82 2.0 N 48 61 26 33 995.5 - 0.0
08/05:00pm 21.8 15.7 18.5 81 2.1 NNE 48 57 26 31 993.4 - 0.0
08/04:30pm 21.7 15.6 18.4 81 2.1 NNE 48 61 26 33 993.2 - 0.0
08/04:00pm 21.9 16.1 18.2 79 2.3 NNE 46 57 25 31 993.8 - 0.0
08/03:30pm 22.0 16.2 18.2 79 2.4 NNE 46 61 25 33 994.2 - 0.0
08/03:00pm 21.0 14.7 18.1 83 1.8 NNE 48 54 26 29 994.8 994.8 0.0
08/02:30pm 20.7 14.7 17.8 83 1.8 NNE 46 57 25 31 995.9 - 0.0
08/02:00pm 21.2 15.9 17.3 78 2.4 NNE 41 52 22 28 996.4 - 0.0
08/01:30pm 20.9 14.8 17.7 82 2.0 NNE 46 57 25 31 996.8 - 0.0

Other Formats:

Comma delimited format used in spreadsheet applications
http://www.bom.gov.au/fwo/IDN60801/IDN60801.94933.axf

JavaScript Object Notation format (JSON) in row-major order
http://www.bom.gov.au/fwo/IDN60801/IDN60801.94933.json